Terminal Aerodrome Forecast
Issued by NWS Cleveland, OH

Home | Current Version | Previous Version | Graphics & Text | Print | Product List | Glossary Off
Versions: 1 2 3 4 5 6 7 8 9 10 11 12 13

354
FTUS41 KCLE 172340
TAFTOL
TAF
KTOL 172340Z 1800/1824 22005KT P6SM SCT250
     FM181600 22012G20KT P6SM SKC
     FM182300 20007KT P6SM SKC=

USA.gov is the U.S. government's official web portal to all federal, state and local government web resources and services.